sensor_id;sensor_type;location;lat;lon;timestamp;pressure;altitude;pressure_sealevel;temperature;humidity
16595;BME280;8410;52.532;13.336;2023-04-10T00:00:10;102184.47;;;10.72;82.96
16595;BME280;8410;52.532;13.336;2023-04-10T00:02:38;102181.56;;;10.63;83.26
16595;BME280;8410;52.532;13.336;2023-04-10T00:05:07;102181.94;;;10.74;82.84
16595;BME280;8410;52.532;13.336;2023-04-10T00:07:34;102181.84;;;10.71;82.37
16595;BME280;8410;52.532;13.336;2023-04-10T00:10:02;102184.25;;;10.66;82.82
16595;BME280;8410;52.532;13.336;2023-04-10T00:12:31;102183.56;;;10.72;82.05
16595;BME280;8410;52.532;13.336;2023-04-10T00:14:58;102177.03;;;10.56;82.07
16595;BME280;8410;52.532;13.336;2023-04-10T00:17:26;102168.97;;;10.47;82.76
16595;BME280;8410;52.532;13.336;2023-04-10T00:19:53;102170.31;;;10.61;82.09
16595;BME280;8410;52.532;13.336;2023-04-10T00:22:21;102172.97;;;10.38;83.37
16595;BME280;8410;52.532;13.336;2023-04-10T00:24:48;102169.19;;;10.53;83.11
16595;BME280;8410;52.532;13.336;2023-04-10T00:27:15;102163.50;;;10.62;82.54
16595;BME280;8410;52.532;13.336;2023-04-10T00:29:44;102158.94;;;10.30;82.57
16595;BME280;8410;52.532;13.336;2023-04-10T00:32:12;102157.22;;;10.29;82.54
16595;BME280;8410;52.532;13.336;2023-04-10T00:34:39;102156.72;;;10.17;83.43
16595;BME280;8410;52.532;13.336;2023-04-10T00:37:07;102156.81;;;10.20;83.18
16595;BME280;8410;52.532;13.336;2023-04-10T00:39:34;102148.50;;;10.03;84.20
16595;BME280;8410;52.532;13.336;2023-04-10T00:42:02;102145.97;;;10.05;84.12
16595;BME280;8410;52.532;13.336;2023-04-10T00:44:34;102152.97;;;10.09;83.92
16595;BME280;8410;52.532;13.336;2023-04-10T00:47:04;102146.84;;;10.05;83.76
16595;BME280;8410;52.532;13.336;2023-04-10T00:49:32;102138.13;;;10.02;84.05
16595;BME280;8410;52.532;13.336;2023-04-10T00:52:00;102147.44;;;9.98;84.33
16595;BME280;8410;52.532;13.336;2023-04-10T00:54:28;102140.69;;;10.02;84.28
16595;BME280;8410;52.532;13.336;2023-04-10T00:56:57;102142.13;;;9.93;83.95
16595;BME280;8410;52.532;13.336;2023-04-10T00:59:25;102144.78;;;9.97;83.93
16595;BME280;8410;52.532;13.336;2023-04-10T01:01:52;102143.56;;;10.09;83.44
16595;BME280;8410;52.532;13.336;2023-04-10T01:04:21;102140.94;;;10.08;83.80
16595;BME280;8410;52.532;13.336;2023-04-10T01:06:57;102143.34;;;10.03;83.80
16595;BME280;8410;52.532;13.336;2023-04-10T01:09:34;102139.41;;;10.13;82.17
16595;BME280;8410;52.532;13.336;2023-04-10T01:12:13;102147.72;;;10.06;83.76
16595;BME280;8410;52.532;13.336;2023-04-10T01:14:49;102140.00;;;10.28;82.04
16595;BME280;8410;52.532;13.336;2023-04-10T01:17:22;102131.84;;;10.18;81.93
16595;BME280;8410;52.532;13.336;2023-04-10T01:20:02;102135.28;;;10.18;81.48
16595;BME280;8410;52.532;13.336;2023-04-10T01:22:34;102136.88;;;10.14;81.97
16595;BME280;8410;52.532;13.336;2023-04-10T01:25:16;102137.84;;;9.94;82.01
16595;BME280;8410;52.532;13.336;2023-04-10T01:28:01;102145.16;;;9.83;82.38
16595;BME280;8410;52.532;13.336;2023-04-10T01:30:34;102140.16;;;9.86;82.60
16595;BME280;8410;52.532;13.336;2023-04-10T01:33:02;102139.91;;;9.80;82.59
16595;BME280;8410;52.532;13.336;2023-04-10T01:35:32;102137.28;;;9.79;82.57
16595;BME280;8410;52.532;13.336;2023-04-10T01:38:03;102147.38;;;9.97;82.44
16595;BME280;8410;52.532;13.336;2023-04-10T01:40:34;102148.59;;;10.06;81.89
16595;BME280;8410;52.532;13.336;2023-04-10T01:43:07;102142.97;;;9.94;81.71
16595;BME280;8410;52.532;13.336;2023-04-10T01:45:38;102143.22;;;10.00;81.85
16595;BME280;8410;52.532;13.336;2023-04-10T01:48:08;102139.66;;;9.97;81.47
16595;BME280;8410;52.532;13.336;2023-04-10T01:50:37;102136.75;;;9.87;81.32
16595;BME280;8410;52.532;13.336;2023-04-10T01:53:05;102134.88;;;9.83;82.25
16595;BME280;8410;52.532;13.336;2023-04-10T01:55:35;102127.88;;;9.79;82.14
16595;BME280;8410;52.532;13.336;2023-04-10T01:58:03;102126.56;;;9.90;81.49
16595;BME280;8410;52.532;13.336;2023-04-10T02:00:38;102130.09;;;9.92;81.68
16595;BME280;8410;52.532;13.336;2023-04-10T02:03:06;102133.34;;;9.88;81.46
16595;BME280;8410;52.532;13.336;2023-04-10T02:05:43;102138.84;;;9.98;80.94
16595;BME280;8410;52.532;13.336;2023-04-10T02:08:16;102138.34;;;9.84;81.85
16595;BME280;8410;52.532;13.336;2023-04-10T02:10:49;102138.28;;;9.82;81.56
16595;BME280;8410;52.532;13.336;2023-04-10T02:13:20;102130.84;;;9.90;81.71
16595;BME280;8410;52.532;13.336;2023-04-10T02:15:49;102132.38;;;9.85;81.36
16595;BME280;8410;52.532;13.336;2023-04-10T02:18:18;102134.16;;;9.42;82.82
16595;BME280;8410;52.532;13.336;2023-04-10T02:20:48;102126.69;;;9.48;83.11
16595;BME280;8410;52.532;13.336;2023-04-10T02:23:16;102122.53;;;9.75;81.67
16595;BME280;8410;52.532;13.336;2023-04-10T02:25:44;102131.00;;;9.49;81.98
16595;BME280;8410;52.532;13.336;2023-04-10T02:28:12;102131.22;;;9.33;83.07
16595;BME280;8410;52.532;13.336;2023-04-10T02:30:39;102130.09;;;9.26;83.44
16595;BME280;8410;52.532;13.336;2023-04-10T02:33:08;102135.88;;;9.21;83.27
16595;BME280;8410;52.532;13.336;2023-04-10T02:35:35;102132.47;;;9.22;84.19
16595;BME280;8410;52.532;13.336;2023-04-10T02:38:03;102127.09;;;9.37;83.62
16595;BME280;8410;52.532;13.336;2023-04-10T02:40:31;102127.59;;;9.28;83.93
16595;BME280;8410;52.532;13.336;2023-04-10T02:42:58;102131.09;;;9.30;83.35
16595;BME280;8410;52.532;13.336;2023-04-10T02:45:26;102134.00;;;9.17;84.01
16595;BME280;8410;52.532;13.336;2023-04-10T02:47:53;102128.78;;;8.94;84.17
16595;BME280;8410;52.532;13.336;2023-04-10T02:50:22;102142.03;;;9.03;84.01
16595;BME280;8410;52.532;13.336;2023-04-10T02:52:50;102144.09;;;9.12;83.55
16595;BME280;8410;52.532;13.336;2023-04-10T02:55:17;102140.13;;;8.99;84.67
16595;BME280;8410;52.532;13.336;2023-04-10T02:57:45;102132.34;;;9.19;85.13
16595;BME280;8410;52.532;13.336;2023-04-10T03:00:13;102133.22;;;9.40;83.80
16595;BME280;8410;52.532;13.336;2023-04-10T03:02:41;102135.63;;;9.36;82.59
16595;BME280;8410;52.532;13.336;2023-04-10T03:05:09;102139.47;;;9.47;82.70
16595;BME280;8410;52.532;13.336;2023-04-10T03:07:38;102138.34;;;9.40;82.16
16595;BME280;8410;52.532;13.336;2023-04-10T03:10:06;102141.75;;;9.39;83.39
16595;BME280;8410;52.532;13.336;2023-04-10T03:12:34;102138.72;;;9.49;83.22
16595;BME280;8410;52.532;13.336;2023-04-10T03:15:02;102139.47;;;9.47;83.83
16595;BME280;8410;52.532;13.336;2023-04-10T03:17:30;102146.25;;;9.24;82.38
16595;BME280;8410;52.532;13.336;2023-04-10T03:19:58;102142.78;;;9.01;83.87
16595;BME280;8410;52.532;13.336;2023-04-10T03:22:25;102151.25;;;8.79;84.41
16595;BME280;8410;52.532;13.336;2023-04-10T03:24:58;102145.25;;;8.78;84.74
16595;BME280;8410;52.532;13.336;2023-04-10T03:27:26;102139.41;;;8.61;84.74
16595;BME280;8410;52.532;13.336;2023-04-10T03:29:54;102140.91;;;8.56;85.17
16595;BME280;8410;52.532;13.336;2023-04-10T03:32:21;102133.44;;;8.63;86.30
16595;BME280;8410;52.532;13.336;2023-04-10T03:34:49;102134.72;;;8.72;86.08
16595;BME280;8410;52.532;13.336;2023-04-10T03:37:16;102139.53;;;8.65;85.80
16595;BME280;8410;52.532;13.336;2023-04-10T03:39:44;102133.97;;;8.75;84.29
16595;BME280;8410;52.532;13.336;2023-04-10T03:42:13;102138.06;;;8.50;83.71
16595;BME280;8410;52.532;13.336;2023-04-10T03:44:40;102143.47;;;8.56;85.22
16595;BME280;8410;52.532;13.336;2023-04-10T03:47:08;102145.59;;;8.28;85.01
16595;BME280;8410;52.532;13.336;2023-04-10T03:49:36;102143.28;;;8.34;85.30
16595;BME280;8410;52.532;13.336;2023-04-10T03:52:03;102145.19;;;8.38;84.23
16595;BME280;8410;52.532;13.336;2023-04-10T03:54:31;102140.59;;;8.31;84.14
16595;BME280;8410;52.532;13.336;2023-04-10T03:56:59;102144.09;;;8.33;83.57
16595;BME280;8410;52.532;13.336;2023-04-10T03:59:28;102143.03;;;8.28;84.75
16595;BME280;8410;52.532;13.336;2023-04-10T04:02:05;102146.31;;;8.25;84.96
16595;BME280;8410;52.532;13.336;2023-04-10T04:04:33;102146.06;;;8.38;84.42
16595;BME280;8410;52.532;13.336;2023-04-10T04:07:01;102146.31;;;8.43;83.68
16595;BME280;8410;52.532;13.336;2023-04-10T04:09:28;102140.31;;;8.43;85.04
16595;BME280;8410;52.532;13.336;2023-04-10T04:11:56;102145.78;;;8.50;84.04
16595;BME280;8410;52.532;13.336;2023-04-10T04:14:23;102134.72;;;8.33;83.60
16595;BME280;8410;52.532;13.336;2023-04-10T04:16:52;102147.28;;;8.08;83.82
16595;BME280;8410;52.532;13.336;2023-04-10T04:19:20;102146.84;;;8.55;85.75
16595;BME280;8410;52.532;13.336;2023-04-10T04:21:47;102136.84;;;8.61;83.85
16595;BME280;8410;52.532;13.336;2023-04-10T04:24:15;102135.06;;;8.60;83.25
16595;BME280;8410;52.532;13.336;2023-04-10T04:26:42;102134.72;;;8.72;84.27
16595;BME280;8410;52.532;13.336;2023-04-10T04:29:09;102137.75;;;8.83;83.47
16595;BME280;8410;52.532;13.336;2023-04-10T04:31:37;102134.47;;;8.66;84.20
16595;BME280;8410;52.532;13.336;2023-04-10T04:34:06;102140.84;;;8.76;84.26
16595;BME280;8410;52.532;13.336;2023-04-10T04:36:33;102140.13;;;8.99;82.61
16595;BME280;8410;52.532;13.336;2023-04-10T04:39:01;102134.75;;;9.14;81.91
16595;BME280;8410;52.532;13.336;2023-04-10T04:41:28;102134.56;;;9.10;82.39
16595;BME280;8410;52.532;13.336;2023-04-10T04:43:57;102132.13;;;9.13;82.34
16595;BME280;8410;52.532;13.336;2023-04-10T04:46:26;102134.47;;;9.29;82.37
16595;BME280;8410;52.532;13.336;2023-04-10T04:48:54;102139.22;;;9.41;81.62
16595;BME280;8410;52.532;13.336;2023-04-10T04:51:22;102136.22;;;9.30;81.75
16595;BME280;8410;52.532;13.336;2023-04-10T04:53:50;102137.25;;;9.13;82.35
16595;BME280;8410;52.532;13.336;2023-04-10T04:56:18;102134.06;;;9.41;82.07
16595;BME280;8410;52.532;13.336;2023-04-10T04:58:45;102134.72;;;9.35;82.60
16595;BME280;8410;52.532;13.336;2023-04-10T05:01:13;102133.00;;;9.57;82.04
16595;BME280;8410;52.532;13.336;2023-04-10T05:03:41;102136.03;;;9.69;81.49
16595;BME280;8410;52.532;13.336;2023-04-10T05:06:08;102133.22;;;10.30;79.82
16595;BME280;8410;52.532;13.336;2023-04-10T05:08:37;102134.06;;;10.31;79.46
16595;BME280;8410;52.532;13.336;2023-04-10T05:11:05;102126.09;;;10.98;77.81
16595;BME280;8410;52.532;13.336;2023-04-10T05:13:33;102124.75;;;11.37;75.75
16595;BME280;8410;52.532;13.336;2023-04-10T05:16:00;102128.81;;;11.57;76.01
16595;BME280;8410;52.532;13.336;2023-04-10T05:18:28;102132.41;;;11.34;75.14
16595;BME280;8410;52.532;13.336;2023-04-10T05:20:55;102137.78;;;11.14;76.98
16595;BME280;8410;52.532;13.336;2023-04-10T05:23:23;102132.59;;;11.13;75.98
16595;BME280;8410;52.532;13.336;2023-04-10T05:25:52;102133.59;;;11.45;76.50
16595;BME280;8410;52.532;13.336;2023-04-10T05:28:19;102135.44;;;11.49;75.33
16595;BME280;8410;52.532;13.336;2023-04-10T05:30:48;102141.16;;;11.67;74.84
16595;BME280;8410;52.532;13.336;2023-04-10T05:33:15;102138.69;;;12.29;74.21
16595;BME280;8410;52.532;13.336;2023-04-10T05:35:43;102132.38;;;13.53;70.94
16595;BME280;8410;52.532;13.336;2023-04-10T05:38:10;102135.34;;;12.98;71.35
16595;BME280;8410;52.532;13.336;2023-04-10T05:40:38;102134.53;;;13.36;71.99
16595;BME280;8410;52.532;13.336;2023-04-10T05:43:06;102122.44;;;14.59;69.52
16595;BME280;8410;52.532;13.336;2023-04-10T05:45:35;102113.78;;;15.09;67.74
16595;BME280;8410;52.532;13.336;2023-04-10T05:48:02;102110.56;;;15.84;65.47
16595;BME280;8410;52.532;13.336;2023-04-10T05:50:30;102111.03;;;15.56;65.40
16595;BME280;8410;52.532;13.336;2023-04-10T05:52:57;102122.16;;;14.92;67.14
16595;BME280;8410;52.532;13.336;2023-04-10T05:55:25;102119.06;;;14.63;67.72
16595;BME280;8410;52.532;13.336;2023-04-10T05:57:52;102112.78;;;15.00;67.62
16595;BME280;8410;52.532;13.336;2023-04-10T06:00:21;102100.16;;;16.61;63.15
16595;BME280;8410;52.532;13.336;2023-04-10T06:02:48;102103.25;;;17.22;61.52
16595;BME280;8410;52.532;13.336;2023-04-10T06:05:16;102104.09;;;16.25;62.51
16595;BME280;8410;52.532;13.336;2023-04-10T06:07:44;102111.28;;;15.13;65.38
16595;BME280;8410;52.532;13.336;2023-04-10T06:10:11;102123.34;;;14.60;68.34
16595;BME280;8410;52.532;13.336;2023-04-10T06:12:39;102117.59;;;14.30;68.53
16595;BME280;8410;52.532;13.336;2023-04-10T06:15:07;102116.13;;;14.01;70.20
16595;BME280;8410;52.532;13.336;2023-04-10T06:17:41;102112.94;;;14.14;68.90
16595;BME280;8410;52.532;13.336;2023-04-10T06:20:10;102116.84;;;13.53;71.76
16595;BME280;8410;52.532;13.336;2023-04-10T06:22:38;102115.31;;;13.62;70.54
16595;BME280;8410;52.532;13.336;2023-04-10T06:25:06;102110.53;;;13.79;70.62
16595;BME280;8410;52.532;13.336;2023-04-10T06:27:33;102115.06;;;12.47;73.66
16595;BME280;8410;52.532;13.336;2023-04-10T06:30:02;102108.75;;;13.04;74.45
16595;BME280;8410;52.532;13.336;2023-04-10T06:32:29;102108.88;;;12.72;74.12
16595;BME280;8410;52.532;13.336;2023-04-10T06:34:58;102116.69;;;13.46;72.75
16595;BME280;8410;52.532;13.336;2023-04-10T06:37:26;102110.44;;;13.76;72.99
16595;BME280;8410;52.532;13.336;2023-04-10T06:40:02;102103.63;;;13.81;72.53
16595;BME280;8410;52.532;13.336;2023-04-10T06:42:33;102106.31;;;13.86;71.67
16595;BME280;8410;52.532;13.336;2023-04-10T06:45:00;102105.44;;;12.08;75.92
16595;BME280;8410;52.532;13.336;2023-04-10T06:47:28;102102.84;;;13.08;75.72
16595;BME280;8410;52.532;13.336;2023-04-10T06:49:56;102104.88;;;13.21;74.02
16595;BME280;8410;52.532;13.336;2023-04-10T06:52:25;102112.94;;;11.72;79.45
16595;BME280;8410;52.532;13.336;2023-04-10T06:54:53;102108.75;;;12.04;77.38
16595;BME280;8410;52.532;13.336;2023-04-10T06:57:20;102105.47;;;13.10;75.62
16595;BME280;8410;52.532;13.336;2023-04-10T06:59:48;102099.97;;;13.32;74.50
16595;BME280;8410;52.532;13.336;2023-04-10T07:02:15;102101.06;;;13.06;74.75
16595;BME280;8410;52.532;13.336;2023-04-10T07:04:43;102097.53;;;13.38;73.26
16595;BME280;8410;52.532;13.336;2023-04-10T07:07:10;102102.88;;;13.44;72.70
16595;BME280;8410;52.532;13.336;2023-04-10T07:09:40;102101.81;;;13.01;74.97
16595;BME280;8410;52.532;13.336;2023-04-10T07:12:07;102105.34;;;13.05;75.56
16595;BME280;8410;52.532;13.336;2023-04-10T07:14:35;102105.88;;;12.57;74.77
16595;BME280;8410;52.532;13.336;2023-04-10T07:17:02;102109.88;;;12.46;75.74
16595;BME280;8410;52.532;13.336;2023-04-10T07:19:30;102098.56;;;13.45;73.23
16595;BME280;8410;52.532;13.336;2023-04-10T07:21:58;102104.16;;;13.65;72.90
16595;BME280;8410;52.532;13.336;2023-04-10T07:24:26;102107.38;;;13.55;73.29
16595;BME280;8410;52.532;13.336;2023-04-10T07:26:54;102110.66;;;13.87;74.37
16595;BME280;8410;52.532;13.336;2023-04-10T07:29:23;102111.69;;;13.95;74.11
16595;BME280;8410;52.532;13.336;2023-04-10T07:31:58;102112.19;;;13.77;79.55
16595;BME280;8410;52.532;13.336;2023-04-10T07:34:26;102110.28;;;11.70;78.89
16595;BME280;8410;52.532;13.336;2023-04-10T07:36:53;102106.63;;;13.59;78.26
16595;BME280;8410;52.532;13.336;2023-04-10T07:39:21;102096.84;;;13.47;78.23
16595;BME280;8410;52.532;13.336;2023-04-10T07:41:48;102100.69;;;13.64;74.47
16595;BME280;8410;52.532;13.336;2023-04-10T07:44:17;102084.78;;;14.80;79.15
16595;BME280;8410;52.532;13.336;2023-04-10T07:46:45;102083.44;;;15.03;72.95
16595;BME280;8410;52.532;13.336;2023-04-10T07:49:12;102084.78;;;14.80;72.58
16595;BME280;8410;52.532;13.336;2023-04-10T07:51:40;102098.66;;;13.15;74.01
16595;BME280;8410;52.532;13.336;2023-04-10T07:54:07;102097.59;;;13.41;75.74
16595;BME280;8410;52.532;13.336;2023-04-10T07:56:35;102089.09;;;14.32;72.48
16595;BME280;8410;52.532;13.336;2023-04-10T07:59:02;102086.66;;;14.38;70.72
16595;BME280;8410;52.532;13.336;2023-04-10T08:01:31;102074.31;;;14.73;70.47
16595;BME280;8410;52.532;13.336;2023-04-10T08:03:59;102075.78;;;14.59;71.67
16595;BME280;8410;52.532;13.336;2023-04-10T08:06:31;102079.19;;;14.55;71.60
16595;BME280;8410;52.532;13.336;2023-04-10T08:08:58;102070.56;;;14.56;71.04
16595;BME280;8410;52.532;13.336;2023-04-10T08:11:28;102083.06;;;13.87;73.17
16595;BME280;8410;52.532;13.336;2023-04-10T08:13:58;102069.03;;;14.67;71.46
16595;BME280;8410;52.532;13.336;2023-04-10T08:16:29;102064.25;;;14.92;70.37
16595;BME280;8410;52.532;13.336;2023-04-10T08:18:58;102061.97;;;14.57;71.56
16595;BME280;8410;52.532;13.336;2023-04-10T08:21:27;102064.91;;;14.80;70.99
16595;BME280;8410;52.532;13.336;2023-04-10T08:23:56;102060.88;;;14.99;69.71
16595;BME280;8410;52.532;13.336;2023-04-10T08:26:25;102063.47;;;14.99;70.80
16595;BME280;8410;52.532;13.336;2023-04-10T08:28:54;102062.81;;;15.12;69.83
16595;BME280;8410;52.532;13.336;2023-04-10T08:31:23;102058.88;;;14.80;69.80
16595;BME280;8410;52.532;13.336;2023-04-10T08:33:53;102059.00;;;14.89;70.13
16595;BME280;8410;52.532;13.336;2023-04-10T08:36:22;102056.09;;;15.24;69.03
16595;BME280;8410;52.532;13.336;2023-04-10T08:38:50;102054.06;;;15.04;68.77
16595;BME280;8410;52.532;13.336;2023-04-10T08:41:18;102053.69;;;14.80;68.93
16595;BME280;8410;52.532;13.336;2023-04-10T08:43:46;102054.16;;;15.10;68.52
16595;BME280;8410;52.532;13.336;2023-04-10T08:46:15;102050.13;;;15.31;68.75
16595;BME280;8410;52.532;13.336;2023-04-10T08:48:45;102043.63;;;15.63;67.06
16595;BME280;8410;52.532;13.336;2023-04-10T08:51:16;102049.78;;;14.53;69.33
16595;BME280;8410;52.532;13.336;2023-04-10T08:53:57;102049.34;;;14.78;68.92
16595;BME280;8410;52.532;13.336;2023-04-10T08:56:27;102037.34;;;15.46;67.55
16595;BME280;8410;52.532;13.336;2023-04-10T08:58:54;102026.25;;;15.56;67.59
16595;BME280;8410;52.532;13.336;2023-04-10T09:01:22;102037.59;;;15.64;66.89
16595;BME280;8410;52.532;13.336;2023-04-10T09:03:50;102029.44;;;15.37;67.08
16595;BME280;8410;52.532;13.336;2023-04-10T09:06:17;102028.47;;;15.97;66.18
16595;BME280;8410;52.532;13.336;2023-04-10T09:08:45;102024.38;;;16.18;65.10
16595;BME280;8410;52.532;13.336;2023-04-10T09:11:14;102018.13;;;16.02;64.74
16595;BME280;8410;52.532;13.336;2023-04-10T09:13:42;102006.78;;;15.92;64.43
16595;BME280;8410;52.532;13.336;2023-04-10T09:16:10;102013.94;;;15.40;63.30
16595;BME280;8410;52.532;13.336;2023-04-10T09:18:46;102007.59;;;15.19;65.01
16595;BME280;8410;52.532;13.336;2023-04-10T09:21:15;101999.31;;;15.50;64.79
16595;BME280;8410;52.532;13.336;2023-04-10T09:23:43;101993.06;;;16.05;63.93
16595;BME280;8410;52.532;13.336;2023-04-10T09:26:24;101987.19;;;16.26;62.61
16595;BME280;8410;52.532;13.336;2023-04-10T09:28:57;101991.66;;;16.41;61.40
16595;BME280;8410;52.532;13.336;2023-04-10T09:31:32;101992.50;;;16.40;62.78
16595;BME280;8410;52.532;13.336;2023-04-10T09:34:06;101984.06;;;15.73;64.30
16595;BME280;8410;52.532;13.336;2023-04-10T09:36:34;101992.72;;;15.73;65.44
16595;BME280;8410;52.532;13.336;2023-04-10T09:39:02;101980.13;;;16.10;64.44
16595;BME280;8410;52.532;13.336;2023-04-10T09:41:32;101982.78;;;14.77;64.69
16595;BME280;8410;52.532;13.336;2023-04-10T09:44:07;101968.09;;;15.42;65.53
16595;BME280;8410;52.532;13.336;2023-04-10T09:46:35;101967.03;;;15.99;63.37
16595;BME280;8410;52.532;13.336;2023-04-10T09:49:02;101966.75;;;15.03;65.80
16595;BME280;8410;52.532;13.336;2023-04-10T09:51:33;101965.81;;;14.98;64.83
16595;BME280;8410;52.532;13.336;2023-04-10T09:54:02;101968.16;;;14.29;68.06
16595;BME280;8410;52.532;13.336;2023-04-10T09:56:29;101963.28;;;14.48;68.32
16595;BME280;8410;52.532;13.336;2023-04-10T09:59:00;101957.59;;;14.69;67.35
16595;BME280;8410;52.532;13.336;2023-04-10T10:01:31;101951.47;;;15.26;67.09
16595;BME280;8410;52.532;13.336;2023-04-10T10:04:01;101950.13;;;16.50;63.38
16595;BME280;8410;52.532;13.336;2023-04-10T10:06:30;101943.81;;;16.15;63.89
16595;BME280;8410;52.532;13.336;2023-04-10T10:09:01;101935.66;;;16.82;62.29
16595;BME280;8410;52.532;13.336;2023-04-10T10:11:31;101926.13;;;16.85;62.50
16595;BME280;8410;52.532;13.336;2023-04-10T10:14:04;101936.50;;;16.84;61.46
16595;BME280;8410;52.532;13.336;2023-04-10T10:16:38;101930.81;;;16.19;64.22
16595;BME280;8410;52.532;13.336;2023-04-10T10:19:12;101923.50;;;16.81;62.86
16595;BME280;8410;52.532;13.336;2023-04-10T10:21:43;101922.16;;;16.19;63.19
16595;BME280;8410;52.532;13.336;2023-04-10T10:24:12;101925.81;;;16.44;63.95
16595;BME280;8410;52.532;13.336;2023-04-10T10:26:39;101912.34;;;17.05;61.65
16595;BME280;8410;52.532;13.336;2023-04-10T10:29:09;101919.91;;;16.68;62.42
16595;BME280;8410;52.532;13.336;2023-04-10T10:31:38;101911.28;;;16.75;61.50
16595;BME280;8410;52.532;13.336;2023-04-10T10:34:07;101914.63;;;16.49;61.98
16595;BME280;8410;52.532;13.336;2023-04-10T10:36:35;101901.09;;;17.10;61.33
16595;BME280;8410;52.532;13.336;2023-04-10T10:39:28;101894.19;;;17.26;60.87
16595;BME280;8410;52.532;13.336;2023-04-10T10:42:03;101895.91;;;17.12;60.79
16595;BME280;8410;52.532;13.336;2023-04-10T10:44:39;101894.97;;;16.93;61.59
16595;BME280;8410;52.532;13.336;2023-04-10T10:47:13;101884.41;;;16.73;62.30
16595;BME280;8410;52.532;13.336;2023-04-10T10:49:52;101879.56;;;17.71;59.35
16595;BME280;8410;52.532;13.336;2023-04-10T10:52:36;101877.75;;;17.33;60.63
16595;BME280;8410;52.532;13.336;2023-04-10T10:55:28;101878.56;;;17.17;61.08
16595;BME280;8410;52.532;13.336;2023-04-10T10:57:58;101866.50;;;17.53;60.31
16595;BME280;8410;52.532;13.336;2023-04-10T11:01:04;101875.00;;;16.90;62.07
16595;BME280;8410;52.532;13.336;2023-04-10T11:03:35;101868.19;;;17.26;61.32
16595;BME280;8410;52.532;13.336;2023-04-10T11:06:06;101863.72;;;16.94;60.07
16595;BME280;8410;52.532;13.336;2023-04-10T11:08:44;101862.25;;;17.89;60.01
16595;BME280;8410;52.532;13.336;2023-04-10T11:11:14;101850.84;;;17.22;60.32
16595;BME280;8410;52.532;13.336;2023-04-10T11:14:12;101849.91;;;17.06;61.70
16595;BME280;8410;52.532;13.336;2023-04-10T11:16:45;101849.06;;;17.18;61.28
16595;BME280;8410;52.532;13.336;2023-04-10T11:19:14;101838.72;;;17.44;60.23
16595;BME280;8410;52.532;13.336;2023-04-10T11:22:02;101837.91;;;18.05;59.27
16595;BME280;8410;52.532;13.336;2023-04-10T11:24:55;101839.53;;;17.23;59.92
16595;BME280;8410;52.532;13.336;2023-04-10T11:27:44;101841.06;;;16.72;62.61
16595;BME280;8410;52.532;13.336;2023-04-10T11:30:31;101829.06;;;16.95;61.42
16595;BME280;8410;52.532;13.336;2023-04-10T11:33:02;101824.69;;;16.79;61.36
16595;BME280;8410;52.532;13.336;2023-04-10T11:35:31;101826.44;;;16.91;60.85
16595;BME280;8410;52.532;13.336;2023-04-10T11:38:13;101814.19;;;16.68;61.19
16595;BME280;8410;52.532;13.336;2023-04-10T11:40:58;101804.03;;;17.59;59.68
16595;BME280;8410;52.532;13.336;2023-04-10T11:43:27;101803.13;;;17.29;60.61
16595;BME280;8410;52.532;13.336;2023-04-10T11:46:02;101796.19;;;17.22;60.39
16595;BME280;8410;52.532;13.336;2023-04-10T11:48:31;101797.94;;;17.69;59.33
16595;BME280;8410;52.532;13.336;2023-04-10T11:51:05;101794.47;;;17.52;59.15
16595;BME280;8410;52.532;13.336;2023-04-10T11:53:33;101790.13;;;18.18;58.14
16595;BME280;8410;52.532;13.336;2023-04-10T11:56:01;101784.94;;;18.07;58.43
16595;BME280;8410;52.532;13.336;2023-04-10T11:58:29;101785.75;;;17.16;60.77
16595;BME280;8410;52.532;13.336;2023-04-10T12:01:01;101784.06;;;17.46;58.52
16595;BME280;8410;52.532;13.336;2023-04-10T12:03:38;101784.63;;;16.48;61.53
16595;BME280;8410;52.532;13.336;2023-04-10T12:06:09;101770.16;;;17.74;57.72
16595;BME280;8410;52.532;13.336;2023-04-10T12:08:37;101761.50;;;17.35;57.85
16595;BME280;8410;52.532;13.336;2023-04-10T12:11:06;101763.22;;;17.27;59.87
16595;BME280;8410;52.532;13.336;2023-04-10T12:13:34;101758.03;;;17.99;57.48
16595;BME280;8410;52.532;13.336;2023-04-10T12:16:03;101743.16;;;18.34;57.19
16595;BME280;8410;52.532;13.336;2023-04-10T12:18:32;101743.91;;;18.57;56.22
16595;BME280;8410;52.532;13.336;2023-04-10T12:21:03;101740.47;;;18.52;56.40
16595;BME280;8410;52.532;13.336;2023-04-10T12:23:35;101739.63;;;18.44;54.36
16595;BME280;8410;52.532;13.336;2023-04-10T12:26:11;101737.75;;;18.73;54.50
16595;BME280;8410;52.532;13.336;2023-04-10T12:28:41;101730.72;;;18.94;54.44
16595;BME280;8410;52.532;13.336;2023-04-10T12:31:08;101726.50;;;18.62;54.44
16595;BME280;8410;52.532;13.336;2023-04-10T12:33:36;101726.53;;;18.56;54.60
16595;BME280;8410;52.532;13.336;2023-04-10T12:36:06;101720.34;;;18.79;54.82
16595;BME280;8410;52.532;13.336;2023-04-10T12:38:45;101715.13;;;18.82;54.68
16595;BME280;8410;52.532;13.336;2023-04-10T12:41:20;101712.53;;;18.79;54.08
16595;BME280;8410;52.532;13.336;2023-04-10T12:43:47;101715.53;;;17.48;56.33
16595;BME280;8410;52.532;13.336;2023-04-10T12:46:23;101711.16;;;17.06;56.42
16595;BME280;8410;52.532;13.336;2023-04-10T12:48:51;101707.69;;;16.87;55.63
16595;BME280;8410;52.532;13.336;2023-04-10T12:51:40;101704.22;;;17.05;54.65
16595;BME280;8410;52.532;13.336;2023-04-10T12:54:07;101698.97;;;16.80;56.05
16595;BME280;8410;52.532;13.336;2023-04-10T12:56:40;101692.06;;;17.60;53.69
16595;BME280;8410;52.532;13.336;2023-04-10T12:59:07;101681.69;;;16.97;55.26
16595;BME280;8410;52.532;13.336;2023-04-10T13:01:36;101677.28;;;17.96;52.21
16595;BME280;8410;52.532;13.336;2023-04-10T13:04:04;101674.44;;;18.50;50.41
16595;BME280;8410;52.532;13.336;2023-04-10T13:06:41;101662.31;;;18.40;50.30